Time;durP1;ratioP1;P1;durP2;ratioP2;P2;SDS_P1;SDS_P2;PMS_P1;PMS_P2;Temp;Humidity;BMP_temperature;BMP_pressure;BME280_temperature;BME280_humidity;BME280_pressure;Samples;Min_cycle;Max_cycle;Signal;HPM_P1;HPM_P2
2024/03/02 00:00:40;;;;;;;14.87;10.80;;;;;;;6.63;100.00;153064.63;5048654;28;21044;-77
2024/03/02 00:03:09;;;;;;;14.63;12.07;;;;;;;6.65;100.00;153068.47;5050898;28;20810;-77
2024/03/02 00:05:36;;;;;;;13.87;10.57;;;;;;;6.64;100.00;153067.22;5048446;28;20486;-77
2024/03/02 00:08:02;;;;;;;16.87;12.70;;;;;;;6.64;100.00;153065.91;5050024;28;20459;-78
2024/03/02 00:10:37;;;;;;;17.47;12.50;;;;;;;6.63;100.00;153063.31;5036314;28;20467;-77
2024/03/02 00:13:03;;;;;;;15.80;11.53;;;;;;;6.60;100.00;153055.56;5038983;28;20450;-77
2024/03/02 00:15:43;;;;;;;15.03;11.30;;;;;;;6.61;100.00;153059.47;5036128;28;20792;-78
2024/03/02 00:18:12;;;;;;;14.70;12.00;;;;;;;6.60;100.00;153055.56;5042658;28;20836;-78
2024/03/02 00:20:39;;;;;;;17.93;12.03;;;;;;;6.60;100.00;153055.56;5028215;28;20545;-77
2024/03/02 00:23:06;;;;;;;17.57;12.17;;;;;;;6.58;100.00;153050.41;5047657;28;20950;-77
2024/03/02 00:25:38;;;;;;;14.90;11.50;;;;;;;6.53;100.00;153037.50;5044488;28;20493;-78
2024/03/02 00:28:07;;;;;;;14.53;11.70;;;;;;;6.55;100.00;153042.66;5059060;28;20474;-78
2024/03/02 00:31:00;;;;;;;15.20;11.67;;;;;;;6.51;100.00;153032.38;5044778;28;20459;-77
2024/03/02 00:33:49;;;;;;;16.40;11.60;;;;;;;6.49;100.00;153027.16;5049976;28;20423;-77
2024/03/02 00:36:17;;;;;;;14.07;10.43;;;;;;;6.49;100.00;153027.16;5034805;28;20439;-78
2024/03/02 00:38:46;;;;;;;14.03;10.60;;;;;;;6.48;100.00;153024.63;5041848;28;20575;-78
2024/03/02 00:41:18;;;;;;;14.27;10.93;;;;;;;6.47;100.00;153022.00;5048383;28;20545;-78
2024/03/02 00:43:46;;;;;;;15.30;10.70;;;;;;;6.45;100.00;153016.88;5044471;28;20438;-78
2024/03/02 00:46:17;;;;;;;13.93;11.27;;;;;;;6.48;100.00;153025.91;5044479;28;20471;-78
2024/03/02 00:48:49;;;;;;;15.47;12.03;;;;;;;6.47;100.00;153022.00;5046175;28;20451;-78
2024/03/02 00:51:16;;;;;;;18.37;12.70;;;;;;;6.45;100.00;153016.88;5042709;28;20470;-78
2024/03/02 00:53:42;;;;;;;17.47;11.93;;;;;;;6.41;100.00;153006.53;5044356;28;20501;-78
2024/03/02 00:56:10;;;;;;;13.83;10.10;;;;;;;6.40;100.00;153005.28;5045804;28;20446;-78
2024/03/02 00:58:37;;;;;;;16.23;11.13;;;;;;;6.42;100.00;153009.13;5045891;28;20443;-78
2024/03/02 01:01:04;;;;;;;14.80;11.43;;;;;;;6.40;100.00;153005.28;5045375;28;20435;-78
2024/03/02 01:03:32;;;;;;;13.60;11.20;;;;;;;6.41;100.00;153006.53;5045574;28;20431;-77
2024/03/02 01:05:58;;;;;;;18.60;11.80;;;;;;;6.39;100.00;153001.38;5043628;28;20494;-78
2024/03/02 01:08:25;;;;;;;13.70;10.13;;;;;;;6.40;100.00;153005.28;5045992;28;20471;-78
2024/03/02 01:10:51;;;;;;;13.13;10.47;;;;;;;6.40;100.00;153003.97;5045710;28;20446;-78
2024/03/02 01:13:18;;;;;;;14.70;10.97;;;;;;;6.42;100.00;153009.13;5042855;28;20497;-77
2024/03/02 01:15:44;;;;;;;13.90;10.93;;;;;;;6.39;100.00;153001.38;5050038;28;20454;-78
2024/03/02 01:18:11;;;;;;;16.70;10.10;;;;;;;6.40;100.00;153003.97;5036433;28;20451;-77
2024/03/02 01:20:39;;;;;;;16.20;10.20;;;;;;;6.42;100.00;153010.41;5035795;28;20459;-78
2024/03/02 01:23:05;;;;;;;14.20;10.47;;;;;;;6.43;100.00;153011.72;5034882;28;20462;-78
2024/03/02 01:25:32;;;;;;;14.27;9.83;;;;;;;6.44;100.00;153014.28;5029388;28;20482;-78
2024/03/02 01:27:59;;;;;;;12.70;9.50;;;;;;;6.41;100.00;153006.53;5049407;28;20470;-78
2024/03/02 01:30:25;;;;;;;15.37;12.00;;;;;;;6.39;100.00;153001.38;5049525;28;20454;-78
2024/03/02 01:32:52;;;;;;;14.87;10.47;;;;;;;6.40;100.00;153003.97;5047628;28;20797;-78
2024/03/02 01:35:18;;;;;;;14.27;9.53;;;;;;;6.38;100.00;153000.06;5048262;28;20500;-78
2024/03/02 01:37:46;;;;;;;12.50;10.00;;;;;;;6.36;100.00;152994.91;5048815;28;20423;-78
2024/03/02 01:40:13;;;;;;;13.80;9.97;;;;;;;6.33;100.00;152987.16;5047774;28;20455;-78
2024/03/02 01:42:40;;;;;;;12.07;9.60;;;;;;;6.35;100.00;152991.06;5031883;28;20821;-77
2024/03/02 01:45:07;;;;;;;12.53;10.20;;;;;;;6.31;100.00;152982.03;5047392;28;20932;-78
2024/03/02 01:47:34;;;;;;;12.47;9.93;;;;;;;6.30;100.00;152979.41;5029216;28;20454;-77
2024/03/02 01:50:00;;;;;;;11.90;9.60;;;;;;;6.28;100.00;152974.28;5046636;28;20485;-77
2024/03/02 01:52:27;;;;;;;13.10;9.90;;;;;;;6.24;100.00;152963.97;5046916;28;20457;-77
2024/03/02 01:54:55;;;;;;;16.23;10.43;;;;;;;6.19;100.00;152949.78;5047421;28;20868;-77
2024/03/02 01:57:22;;;;;;;14.23;10.50;;;;;;;6.17;100.00;152945.88;5047882;28;20435;-78
2024/03/02 01:59:50;;;;;;;14.20;9.50;;;;;;;6.13;100.00;152936.88;5048741;28;20435;-78
2024/03/02 02:02:17;;;;;;;10.97;9.00;;;;;;;6.07;100.00;152920.09;5055431;28;21015;-77
2024/03/02 02:04:43;;;;;;;14.50;10.90;;;;;;;6.06;100.00;152918.78;5048871;28;20451;-78
2024/03/02 02:07:11;;;;;;;14.73;10.17;;;;;;;6.01;100.00;152905.88;5049728;28;20478;-78
2024/03/02 02:09:37;;;;;;;13.93;10.20;;;;;;;6.00;100.00;152903.34;5029831;28;20472;-78
2024/03/02 02:12:06;;;;;;;12.07;9.60;;;;;;;6.02;100.00;152908.50;5045732;28;20480;-78
2024/03/02 02:14:33;;;;;;;13.70;9.97;;;;;;;6.06;100.00;152917.53;5046371;28;21349;-77
2024/03/02 02:16:59;;;;;;;15.70;10.83;;;;;;;6.07;100.00;152921.38;5046804;28;20431;-77
2024/03/02 02:19:26;;;;;;;13.43;10.00;;;;;;;6.05;100.00;152916.25;5045802;28;20439;-77
2024/03/02 02:21:54;;;;;;;11.60;8.30;;;;;;;5.98;100.00;152896.91;5046127;28;20835;-77
2024/03/02 02:24:20;;;;;;;11.83;9.07;;;;;;;5.92;100.00;152881.41;5047091;28;20807;-77
2024/03/02 02:26:47;;;;;;;16.23;11.13;;;;;;;5.87;100.00;152869.81;5046481;28;20467;-77
2024/03/02 02:29:13;;;;;;;11.33;8.70;;;;;;;5.80;100.00;152850.44;5049815;28;20439;-76
2024/03/02 02:31:40;;;;;;;14.73;9.73;;;;;;;5.80;100.00;152851.66;5045956;28;20449;-77
2024/03/02 02:34:07;;;;;;;14.30;9.50;;;;;;;5.81;100.00;152852.97;5043891;28;20466;-76
2024/03/02 02:36:34;;;;;;;13.93;10.37;;;;;;;5.80;100.00;152850.44;5030072;28;20462;-76
2024/03/02 02:39:06;;;;;;;13.60;10.97;;;;;;;5.78;100.00;152845.22;5049001;28;20439;-76
2024/03/02 02:41:33;;;;;;;10.73;8.53;;;;;;;5.74;100.00;152836.22;5049585;28;20451;-77
2024/03/02 02:44:00;;;;;;;15.20;10.83;;;;;;;5.72;100.00;152831.03;5044565;28;20454;-77
2024/03/02 02:46:26;;;;;;;14.30;10.63;;;;;;;5.65;100.00;152813.00;5045785;28;20562;-76
2024/03/02 02:48:53;;;;;;;16.77;11.10;;;;;;;5.64;100.00;152810.41;5047247;28;20431;-77
2024/03/02 02:51:20;;;;;;;14.60;9.47;;;;;;;5.66;100.00;152815.59;5035993;28;20451;-77
2024/03/02 02:53:46;;;;;;;15.17;10.47;;;;;;;5.65;100.00;152811.69;5045862;28;20450;-77
2024/03/02 02:56:15;;;;;;;13.83;9.73;;;;;;;5.60;100.00;152800.09;5047358;28;20445;-77
2024/03/02 02:58:41;;;;;;;16.10;10.87;;;;;;;5.59;100.00;152796.25;5047592;28;20439;-77
2024/03/02 03:01:08;;;;;;;15.30;9.90;;;;;;;5.56;100.00;152789.75;5043008;28;20550;-76
2024/03/02 03:03:35;;;;;;;13.03;9.13;;;;;;;5.57;100.00;152791.06;5044832;28;20918;-77
2024/03/02 03:06:02;;;;;;;11.27;10.07;;;;;;;5.56;100.00;152789.75;5046640;28;20478;-77
2024/03/02 03:08:28;;;;;;;12.27;9.63;;;;;;;5.55;100.00;152787.22;5046902;28;20473;-77
2024/03/02 03:10:55;;;;;;;14.93;11.07;;;;;;;5.54;100.00;152785.91;5040942;28;20489;-77
2024/03/02 03:13:23;;;;;;;13.77;9.60;;;;;;;5.53;100.00;152782.06;5043352;28;20444;-77
2024/03/02 03:15:50;;;;;;;15.37;11.00;;;;;;;5.52;100.00;152779.47;5044931;28;20447;-77
2024/03/02 03:18:16;;;;;;;14.87;10.07;;;;;;;5.53;100.00;152782.06;5040660;28;20479;-77
2024/03/02 03:20:43;;;;;;;13.73;10.03;;;;;;;5.49;100.00;152771.72;5039770;28;20541;-77
2024/03/02 03:23:09;;;;;;;14.63;9.90;;;;;;;5.49;100.00;152771.72;5046984;28;20445;-77
2024/03/02 03:25:36;;;;;;;14.60;10.50;;;;;;;5.48;100.00;152770.44;5021127;28;20474;-77
2024/03/02 03:28:03;;;;;;;14.37;10.20;;;;;;;5.45;100.00;152762.69;5038546;28;20428;-77
2024/03/02 03:30:30;;;;;;;14.90;10.00;;;;;;;5.43;100.00;152757.53;5042462;28;20506;-76
2024/03/02 03:32:57;;;;;;;16.13;10.03;;;;;;;5.42;100.00;152753.69;5046568;28;20465;-77
2024/03/02 03:35:23;;;;;;;13.43;10.13;;;;;;;5.40;100.00;152748.56;5046191;28;20443;-77
2024/03/02 03:37:50;;;;;;;14.20;10.30;;;;;;;5.38;100.00;152743.34;5040538;28;20541;-77
2024/03/02 03:40:18;;;;;;;12.37;9.30;;;;;;;5.36;100.00;152739.50;5051029;28;20458;-77
2024/03/02 03:42:44;;;;;;;13.70;9.87;;;;;;;5.35;100.00;152735.63;5052413;28;20461;-77
2024/03/02 03:45:11;;;;;;;12.47;10.37;;;;;;;5.32;100.00;152729.16;5043895;28;20624;-77
2024/03/02 03:47:39;;;;;;;15.67;11.00;;;;;;;5.31;100.00;152725.31;5044670;28;20474;-76
2024/03/02 03:50:07;;;;;;;12.37;9.20;;;;;;;5.29;100.00;152720.19;5036534;28;20853;-77
2024/03/02 03:52:33;;;;;;;13.37;9.67;;;;;;;5.29;100.00;152720.19;5034859;28;20439;-77
2024/03/02 03:55:00;;;;;;;12.10;9.90;;;;;;;5.27;100.00;152716.28;5044056;28;20466;-77
2024/03/02 03:57:27;;;;;;;15.07;10.17;;;;;;;5.24;100.00;152707.28;5048056;28;20433;-77
2024/03/02 03:59:53;;;;;;;13.57;9.83;;;;;;;5.23;100.00;152704.69;5045709;28;20450;-77
2024/03/02 04:02:20;;;;;;;11.57;9.40;;;;;;;5.23;100.00;152704.69;5040845;28;20650;-78
2024/03/02 04:04:48;;;;;;;14.50;9.60;;;;;;;5.25;100.00;152711.13;5046048;28;20462;-77
2024/03/02 04:07:14;;;;;;;16.20;11.30;;;;;;;5.21;100.00;152699.56;5048531;28;20486;-77
2024/03/02 04:09:41;;;;;;;15.20;10.47;;;;;;;5.21;100.00;152699.56;5045490;28;21011;-77
2024/03/02 04:12:07;;;;;;;15.57;9.83;;;;;;;5.19;100.00;152695.66;5044094;28;20855;-77
2024/03/02 04:14:34;;;;;;;16.07;10.90;;;;;;;5.20;100.00;152696.94;5046479;28;20443;-76
2024/03/02 04:17:01;;;;;;;15.57;10.97;;;;;;;5.16;100.00;152687.97;5057307;28;20427;-77
2024/03/02 04:19:27;;;;;;;11.90;9.60;;;;;;;5.13;100.00;152680.22;5026244;28;20512;-77
2024/03/02 04:21:55;;;;;;;14.13;9.77;;;;;;;5.13;100.00;152678.94;5045602;28;20430;-77
2024/03/02 04:24:22;;;;;;;14.50;10.67;;;;;;;5.12;100.00;152676.31;5043495;28;20455;-77
2024/03/02 04:26:48;;;;;;;14.40;10.37;;;;;;;5.12;100.00;152676.31;5044166;28;20941;-77
2024/03/02 04:29:15;;;;;;;16.00;10.60;;;;;;;5.09;100.00;152669.88;5045426;28;20453;-77
2024/03/02 04:31:41;;;;;;;14.37;10.30;;;;;;;5.12;100.00;152676.31;5029500;28;20443;-77
2024/03/02 04:34:08;;;;;;;14.90;10.40;;;;;;;5.07;100.00;152663.44;5028101;28;20533;-77
2024/03/02 04:36:34;;;;;;;16.03;10.63;;;;;;;5.05;100.00;152659.59;5042074;28;20553;-77
2024/03/02 04:39:02;;;;;;;13.40;9.77;;;;;;;5.02;100.00;152650.56;5044642;28;20455;-77
2024/03/02 04:41:29;;;;;;;14.73;10.03;;;;;;;5.02;100.00;152650.56;5018052;28;21000;-77
2024/03/02 04:43:55;;;;;;;17.77;10.50;;;;;;;5.03;100.00;152653.16;5041079;28;20428;-76
2024/03/02 04:46:22;;;;;;;18.80;11.80;;;;;;;5.00;100.00;152645.41;5044869;28;20478;-76
2024/03/02 04:48:54;;;;;;;16.23;10.40;;;;;;;5.00;100.00;152646.72;5047963;28;20497;-77
2024/03/02 04:51:21;;;;;;;15.10;10.77;;;;;;;4.96;100.00;152635.06;5018731;28;20439;-77
2024/03/02 04:53:48;;;;;;;14.07;10.20;;;;;;;4.95;100.00;152632.53;5024947;28;20463;-76
2024/03/02 04:58:56;;;;;;;15.93;9.90;;;;;;;4.91;100.00;152623.50;5040976;28;20787;-76
2024/03/02 05:01:22;;;;;;;14.80;10.60;;;;;;;4.89;100.00;152619.66;5048436;28;20465;-76
2024/03/02 05:03:49;;;;;;;15.90;10.70;;;;;;;4.86;100.00;152611.91;5020204;28;20467;-76
2024/03/02 05:06:16;;;;;;;18.13;11.80;;;;;;;4.86;100.00;152611.91;5038931;28;20478;-77
2024/03/02 05:08:44;;;;;;;18.77;10.10;;;;;;;4.84;100.00;152605.47;5053536;28;20466;-78
2024/03/02 05:13:56;;;;;;;18.73;11.67;;;;;;;4.82;100.00;152601.56;5061895;28;20458;-77
2024/03/02 05:16:22;;;;;;;17.00;10.63;;;;;;;4.85;100.00;152608.03;5063399;28;20450;-77
2024/03/02 05:18:49;;;;;;;15.77;11.10;;;;;;;4.84;100.00;152606.72;5045930;28;20968;-77
2024/03/02 05:21:15;;;;;;;15.53;10.70;;;;;;;4.80;100.00;152596.44;5042023;28;20772;-76
2024/03/02 05:23:42;;;;;;;17.50;11.90;;;;;;;4.79;100.00;152592.59;5049925;28;20455;-78
2024/03/02 05:26:09;;;;;;;17.77;11.50;;;;;;;4.76;100.00;152586.16;5044262;28;20464;-78
2024/03/02 05:28:37;;;;;;;16.20;11.77;;;;;;;4.75;100.00;152583.56;5049336;28;20526;-77
2024/03/02 05:31:05;;;;;;;14.87;11.33;;;;;;;4.73;100.00;152578.41;5029421;28;20986;-77
2024/03/02 05:33:33;;;;;;;18.87;12.13;;;;;;;4.69;100.00;152568.06;5048831;28;20459;-77
2024/03/02 05:35:59;;;;;;;16.27;10.70;;;;;;;4.66;100.00;152559.09;5043026;28;21047;-77
2024/03/02 05:38:26;;;;;;;19.50;12.90;;;;;;;4.61;100.00;152547.47;5049289;28;20459;-77
2024/03/02 05:40:52;;;;;;;18.37;13.00;;;;;;;4.58;100.00;152538.47;5032039;28;20504;-78
2024/03/02 05:43:19;;;;;;;19.07;12.37;;;;;;;4.58;100.00;152538.47;5048927;28;20461;-78
2024/03/02 05:45:46;;;;;;;16.37;11.57;;;;;;;4.54;100.00;152529.44;5045915;28;20458;-78
2024/03/02 05:48:14;;;;;;;19.57;13.80;;;;;;;4.54;100.00;152529.44;5048634;28;20830;-77
2024/03/02 05:50:40;;;;;;;17.37;13.20;;;;;;;4.54;100.00;152528.13;5049651;28;20439;-77
2024/03/02 05:53:07;;;;;;;17.37;13.47;;;;;;;4.53;100.00;152526.84;5061837;28;20442;-78
2024/03/02 05:55:34;;;;;;;18.60;12.20;;;;;;;4.53;100.00;152525.53;5046951;28;21029;-78
2024/03/02 05:58:17;;;;;;;18.83;14.43;;;;;;;4.54;100.00;152529.44;5048565;28;20484;-78
2024/03/02 06:00:43;;;;;;;18.67;12.90;;;;;;;4.52;100.00;152524.28;5050721;28;20455;-78
2024/03/02 06:03:10;;;;;;;22.73;14.63;;;;;;;4.51;100.00;152521.69;5053229;28;20442;-78
2024/03/02 06:05:38;;;;;;;18.97;13.47;;;;;;;4.52;100.00;152524.28;5045125;28;20469;-78
2024/03/02 06:08:05;;;;;;;16.20;12.30;;;;;;;4.50;100.00;152519.09;5041209;28;20483;-78
2024/03/02 06:10:31;;;;;;;18.47;12.47;;;;;;;4.45;100.00;152506.22;5026291;28;20475;-75
2024/03/02 06:12:58;;;;;;;18.83;12.63;;;;;;;4.45;100.00;152506.22;5051367;28;20543;-78
2024/03/02 06:15:25;;;;;;;18.73;13.10;;;;;;;4.48;100.00;152513.97;5034632;28;20466;-78
2024/03/02 06:17:51;;;;;;;18.27;12.03;;;;;;;4.49;100.00;152516.56;5053673;28;20489;-75
2024/03/02 06:20:18;;;;;;;18.93;12.40;;;;;;;4.48;100.00;152513.97;5052542;28;20859;-78
2024/03/02 06:22:46;;;;;;;18.90;11.53;;;;;;;4.49;100.00;152515.25;5039412;28;20450;-78
2024/03/02 06:25:13;;;;;;;15.63;10.47;;;;;;;4.50;100.00;152519.09;5042337;28;20478;-78
2024/03/02 06:27:40;;;;;;;14.37;9.10;;;;;;;4.52;100.00;152523.00;5052753;28;20565;-78
2024/03/02 06:30:08;;;;;;;15.73;10.93;;;;;;;4.57;100.00;152535.88;5021862;28;20467;-78
2024/03/02 06:32:34;;;;;;;12.47;9.37;;;;;;;4.60;100.00;152544.91;5033470;28;20546;-78
2024/03/02 06:35:01;;;;;;;13.13;9.80;;;;;;;4.65;100.00;152556.50;5038619;28;20876;-77
2024/03/02 06:37:27;;;;;;;13.97;9.43;;;;;;;4.67;100.00;152562.94;5039509;28;20441;-78
2024/03/02 06:39:55;;;;;;;12.00;8.47;;;;;;;4.70;100.00;152570.66;5038089;28;20866;-78
2024/03/02 06:42:22;;;;;;;13.23;8.37;;;;;;;4.74;100.00;152579.66;5038023;28;20462;-78
2024/03/02 06:44:48;;;;;;;13.03;9.53;;;;;;;4.74;100.00;152579.66;5039294;28;20458;-77
2024/03/02 06:47:16;;;;;;;13.77;10.30;;;;;;;4.76;100.00;152586.16;5038968;28;20478;-77
2024/03/02 06:49:43;;;;;;;14.53;10.27;;;;;;;4.79;100.00;152593.84;5039279;28;20452;-78
2024/03/02 06:52:09;;;;;;;13.40;10.33;;;;;;;4.83;100.00;152604.16;5040774;28;20450;-77
2024/03/02 06:54:36;;;;;;;16.50;9.90;;;;;;;4.86;100.00;152611.91;5036537;28;20482;-77
2024/03/02 06:57:04;;;;;;;15.37;10.50;;;;;;;4.90;100.00;152622.19;5052068;28;20514;-77
2024/03/02 06:59:30;;;;;;;13.93;10.10;;;;;;;4.97;100.00;152637.69;5040353;28;20486;-77
2024/03/02 07:01:57;;;;;;;13.83;9.63;;;;;;;5.05;100.00;152659.59;5058853;28;20458;-78
2024/03/02 07:04:24;;;;;;;13.40;9.40;;;;;;;5.11;100.00;152675.03;5041394;28;20989;-78
2024/03/02 07:06:51;;;;;;;12.90;9.57;;;;;;;5.18;100.00;152691.81;5052952;28;20489;-77
2024/03/02 07:09:17;;;;;;;15.70;10.60;;;;;;;5.28;100.00;152717.59;5055024;28;20440;-78
2024/03/02 07:11:44;;;;;;;12.07;9.20;;;;;;;5.32;100.00;152729.16;5038638;28;20466;-77
2024/03/02 07:14:12;;;;;;;13.23;10.30;;;;;;;5.42;100.00;152753.69;5035110;28;20455;-77
2024/03/02 07:16:38;;;;;;;13.40;9.53;;;;;;;5.54;100.00;152784.63;5038105;28;20447;-77
2024/03/02 07:19:05;;;;;;;13.47;9.20;;;;;;;5.74;100.00;152834.94;5032890;28;20455;-77
2024/03/02 07:21:33;;;;;;;14.67;10.77;;;;;;;6.00;100.00;152903.34;5040162;28;20462;-77
2024/03/02 07:24:00;;;;;;;16.03;10.50;;;;;;;6.26;100.00;152967.81;5039615;28;20536;-76
2024/03/02 07:26:26;;;;;;;14.73;9.97;;;;;;;6.43;100.00;153011.72;5055250;28;20458;-77
2024/03/02 07:28:53;;;;;;;12.50;9.03;;;;;;;6.64;100.00;153065.91;5052980;28;20528;-77
2024/03/02 07:31:21;;;;;;;12.73;8.63;;;;;;;6.94;100.00;153143.34;5038891;28;20455;-76
2024/03/02 07:33:48;;;;;;;13.00;9.90;;;;;;;7.31;100.00;153237.59;5033566;28;20452;-75
2024/03/02 07:36:14;;;;;;;10.80;8.40;;;;;;;7.68;100.00;153331.84;5017434;28;20469;-74
2024/03/02 07:38:41;;;;;;;11.93;8.70;;;;;;;8.06;100.00;153430.06;5050477;28;20447;-74
2024/03/02 07:41:08;;;;;;;10.70;7.67;;;;;;;8.32;100.00;153496.00;5041731;28;20458;-74
2024/03/02 07:43:35;;;;;;;10.20;7.20;;;;;;;8.33;100.00;153498.63;5037405;28;20827;-74
2024/03/02 07:46:02;;;;;;;9.80;7.20;;;;;;;8.22;100.00;153470.13;5039393;28;20455;-74
2024/03/02 07:48:30;;;;;;;9.60;7.77;;;;;;;8.18;100.00;153461.06;5042172;28;21074;-74
2024/03/02 07:50:57;;;;;;;9.57;6.83;;;;;;;8.25;100.00;153479.19;5039864;28;20557;-74
2024/03/02 07:53:24;;;;;;;7.60;6.23;;;;;;;8.17;99.73;153458.50;5035089;28;20456;-74
2024/03/02 07:55:50;;;;;;;9.80;7.00;;;;;;;8.05;98.66;153427.47;5038664;28;20459;-74
2024/03/02 07:58:18;;;;;;;8.17;6.57;;;;;;;7.96;98.54;153404.22;5039910;28;20733;-74
2024/03/02 08:00:44;;;;;;;9.00;6.67;;;;;;;7.91;98.84;153391.31;5052440;28;20505;-74
2024/03/02 08:03:11;;;;;;;9.10;6.93;;;;;;;7.87;99.19;153380.97;5040276;28;20451;-74
2024/03/02 08:05:39;;;;;;;9.17;7.40;;;;;;;7.77;99.32;153356.44;5034603;28;20461;-74
2024/03/02 08:08:06;;;;;;;10.63;8.10;;;;;;;7.74;99.24;153347.38;5051421;28;20485;-74
2024/03/02 08:10:33;;;;;;;8.13;6.40;;;;;;;7.74;99.27;153348.69;5049004;28;20463;-74
2024/03/02 08:13:00;;;;;;;9.70;7.07;;;;;;;7.71;99.68;153339.63;5035210;28;20455;-74
2024/03/02 08:15:26;;;;;;;9.47;7.13;;;;;;;7.85;100.00;153375.81;5038598;28;20940;-74
2024/03/02 08:17:53;;;;;;;10.10;7.10;;;;;;;7.82;98.93;153368.03;5034222;28;20529;-74
2024/03/02 08:20:19;;;;;;;9.20;7.80;;;;;;;7.87;97.87;153382.25;5051907;28;20458;-75
2024/03/02 08:22:48;;;;;;;11.30;8.73;;;;;;;7.98;98.21;153410.69;5035320;28;20462;-74
2024/03/02 08:25:15;;;;;;;9.03;7.90;;;;;;;8.05;97.72;153427.47;5034202;28;20844;-74
2024/03/02 08:27:42;;;;;;;9.47;6.80;;;;;;;8.06;97.57;153430.06;5036308;28;20475;-74
2024/03/02 08:30:10;;;;;;;8.83;7.90;;;;;;;8.12;97.62;153445.59;5052388;28;20461;-74
2024/03/02 08:32:37;;;;;;;10.20;7.90;;;;;;;8.16;98.01;153454.59;5041040;28;20561;-75
2024/03/02 08:35:04;;;;;;;11.57;8.30;;;;;;;8.22;98.32;153471.44;5033152;28;20551;-75
2024/03/02 08:37:31;;;;;;;11.50;8.63;;;;;;;8.28;98.33;153487.00;5035207;28;20947;-75
2024/03/02 08:39:59;;;;;;;9.33;6.80;;;;;;;8.32;97.89;153497.31;5036499;28;20552;-75
2024/03/02 08:42:26;;;;;;;9.20;7.70;;;;;;;8.43;97.66;153524.47;5034963;28;20458;-75
2024/03/02 08:44:52;;;;;;;8.47;7.13;;;;;;;8.53;97.84;153551.59;5037404;28;20529;-75
2024/03/02 08:47:19;;;;;;;9.07;7.40;;;;;;;8.63;96.68;153574.88;5034955;28;20502;-75
2024/03/02 08:49:45;;;;;;;9.33;7.17;;;;;;;8.67;95.26;153586.50;5037994;28;20455;-75
2024/03/02 08:52:11;;;;;;;9.47;6.50;;;;;;;8.72;95.11;153599.44;5034995;28;20497;-75
2024/03/02 08:54:38;;;;;;;7.57;6.40;;;;;;;8.75;94.70;153607.19;5039896;28;20925;-74
2024/03/02 08:57:07;;;;;;;9.37;6.80;;;;;;;8.79;94.58;153616.25;5050991;28;20206;-75
2024/03/02 08:59:33;;;;;;;11.27;6.63;;;;;;;8.84;93.49;153630.44;5040767;28;20541;-75
2024/03/02 09:02:03;;;;;;;9.00;5.40;;;;;;;8.93;93.47;153653.72;5034342;28;20859;-76
2024/03/02 09:04:29;;;;;;;7.23;5.87;;;;;;;9.00;92.47;153671.81;5037754;28;20815;-76
2024/03/02 09:06:56;;;;;;;8.10;6.07;;;;;;;9.04;91.62;153680.88;5055069;28;20479;-75
2024/03/02 09:09:22;;;;;;;7.37;6.13;;;;;;;9.08;91.58;153692.50;5040292;28;20478;-76
2024/03/02 09:11:49;;;;;;;7.53;5.93;;;;;;;9.12;91.90;153701.59;5037492;28;20718;-76
2024/03/02 09:14:17;;;;;;;9.10;6.77;;;;;;;9.10;91.47;153696.41;5035754;28;21111;-76
2024/03/02 09:16:44;;;;;;;8.67;7.07;;;;;;;9.15;91.77;153710.66;5034654;28;20526;-76
2024/03/02 09:19:10;;;;;;;8.90;6.93;;;;;;;9.23;90.47;153730.03;5049885;28;21088;-76
2024/03/02 09:21:37;;;;;;;8.10;6.80;;;;;;;9.31;88.65;153749.44;5036814;28;20458;-76
2024/03/02 09:24:03;;;;;;;8.33;6.90;;;;;;;9.37;87.47;153764.97;5049864;28;20477;-76
2024/03/02 09:26:30;;;;;;;6.87;5.43;;;;;;;9.46;87.61;153789.53;5031581;28;20471;-77
2024/03/02 09:28:57;;;;;;;8.07;6.47;;;;;;;9.59;87.69;153823.16;5048041;28;20471;-76
2024/03/02 09:31:25;;;;;;;8.33;5.50;;;;;;;9.69;88.13;153847.72;5036210;28;20883;-76
2024/03/02 09:33:52;;;;;;;9.00;6.67;;;;;;;9.74;87.92;153861.97;5035944;28;20923;-76
2024/03/02 09:36:19;;;;;;;9.60;7.83;;;;;;;9.79;87.75;153874.91;5047422;28;20500;-76
2024/03/02 09:38:46;;;;;;;7.80;6.80;;;;;;;9.82;87.96;153880.13;5031282;28;20798;-76
2024/03/02 09:41:13;;;;;;;7.00;5.57;;;;;;;9.84;86.46;153886.59;5049057;28;20463;-77
2024/03/02 09:43:39;;;;;;;9.23;6.37;;;;;;;9.91;84.16;153903.38;5032110;28;20444;-76
2024/03/02 09:46:06;;;;;;;7.17;6.17;;;;;;;9.97;85.08;153920.22;5038932;28;20948;-76
2024/03/02 09:48:34;;;;;;;8.57;6.40;;;;;;;9.93;84.99;153908.59;5040184;28;20829;-76
2024/03/02 09:51:01;;;;;;;8.70;7.33;;;;;;;9.99;85.01;153924.09;5040850;28;20451;-76
2024/03/02 09:53:32;;;;;;;7.50;6.70;;;;;;;10.08;84.08;153948.72;5038169;28;20883;-77
2024/03/02 09:55:59;;;;;;;8.33;6.47;;;;;;;10.17;84.58;153970.72;5039369;28;20483;-76
2024/03/02 09:58:26;;;;;;;8.17;6.33;;;;;;;10.23;83.29;153986.28;5037738;28;20444;-76
2024/03/02 10:00:53;;;;;;;6.30;5.60;;;;;;;10.29;82.38;154003.13;5041172;28;20463;-76
2024/03/02 10:03:19;;;;;;;7.47;6.70;;;;;;;10.15;79.62;153966.88;5052377;28;20459;-76
2024/03/02 10:05:47;;;;;;;9.10;6.70;;;;;;;10.26;82.19;153994.03;5055506;28;20461;-76
2024/03/02 10:08:14;;;;;;;7.47;6.23;;;;;;;10.30;80.62;154005.69;5037508;28;20483;-75
2024/03/02 10:10:44;;;;;;;6.83;5.37;;;;;;;10.33;81.79;154012.16;5038933;28;20924;-76
2024/03/02 10:13:12;;;;;;;6.67;5.97;;;;;;;10.34;80.97;154016.06;5051513;28;21183;-76
2024/03/02 10:15:43;;;;;;;7.73;5.70;;;;;;;10.33;81.52;154012.16;5040168;28;20452;-76
2024/03/02 10:18:12;;;;;;;6.50;5.80;;;;;;;10.44;81.79;154040.63;5037708;28;20443;-76
2024/03/02 10:20:39;;;;;;;9.23;5.77;;;;;;;10.44;80.33;154039.34;5037048;28;20896;-76
2024/03/02 10:23:14;;;;;;;6.80;5.17;;;;;;;10.54;81.95;154065.28;5037422;28;20457;-76
2024/03/02 10:25:41;;;;;;;8.27;5.90;;;;;;;10.54;81.54;154065.28;5038617;28;20960;-76
2024/03/02 10:28:07;;;;;;;7.73;6.40;;;;;;;10.58;81.48;154076.91;5035847;28;20601;-76
2024/03/02 10:30:34;;;;;;;7.37;6.03;;;;;;;10.63;79.52;154089.84;5039200;28;20459;-76
2024/03/02 10:33:03;;;;;;;6.47;5.73;;;;;;;10.67;81.02;154100.19;5042612;28;20824;-76
2024/03/02 10:35:36;;;;;;;7.37;6.33;;;;;;;10.74;81.36;154118.34;5038484;28;20955;-74
2024/03/02 10:38:04;;;;;;;6.40;5.70;;;;;;;10.89;80.70;154157.19;5037139;28;20444;-75
2024/03/02 10:40:32;;;;;;;8.30;5.83;;;;;;;10.95;78.84;154171.44;5038789;28;20463;-77
2024/03/02 10:43:00;;;;;;;7.73;5.83;;;;;;;11.05;79.65;154196.03;5037741;28;20531;-76
2024/03/02 10:45:26;;;;;;;7.47;6.23;;;;;;;11.00;79.38;154185.69;5040362;28;20828;-77
2024/03/02 10:47:53;;;;;;;7.07;5.93;;;;;;;11.02;78.98;154189.56;5035523;28;20463;-76
2024/03/02 10:50:20;;;;;;;6.60;5.43;;;;;;;11.04;79.04;154193.47;5038646;28;20992;-76
2024/03/02 10:52:47;;;;;;;6.20;5.60;;;;;;;11.10;78.58;154210.28;5037926;28;20463;-76
2024/03/02 10:55:14;;;;;;;6.20;5.40;;;;;;;11.16;77.75;154224.53;5029495;28;21020;-74
2024/03/02 10:57:49;;;;;;;6.60;6.00;;;;;;;11.27;78.31;154253.03;5038817;28;20455;-75
2024/03/02 11:00:15;;;;;;;4.93;4.40;;;;;;;11.23;75.96;154242.66;5038799;28;20469;-76
2024/03/02 11:02:47;;;;;;;5.13;4.63;;;;;;;11.28;76.56;154255.66;5037665;28;20450;-76
2024/03/02 11:05:25;;;;;;;7.17;5.17;;;;;;;11.30;74.28;154260.81;5020468;28;20462;-76
2024/03/02 11:07:54;;;;;;;6.43;5.03;;;;;;;11.33;74.93;154268.59;5036537;28;20544;-75
2024/03/02 11:10:21;;;;;;;6.53;4.13;;;;;;;11.39;76.22;154284.13;5039957;28;20451;-76
2024/03/02 11:12:56;;;;;;;6.20;4.00;;;;;;;11.55;74.92;154325.59;5042530;28;20443;-76
2024/03/02 11:15:26;;;;;;;5.50;4.17;;;;;;;11.57;74.95;154330.75;5036600;28;20466;-75
2024/03/02 11:17:53;;;;;;;6.50;4.10;;;;;;;11.53;73.31;154320.41;5039474;28;20451;-76
2024/03/02 11:20:20;;;;;;;4.50;3.93;;;;;;;11.56;73.43;154328.19;5039508;28;20459;-76
2024/03/02 11:22:47;;;;;;;3.93;3.23;;;;;;;11.69;73.02;154361.94;5039062;28;21056;-75